Time;durP1;ratioP1;P1;durP2;ratioP2;P2;SDS_P1;SDS_P2;PMS_P1;PMS_P2;Temp;Humidity;BMP_temperature;BMP_pressure;BME280_temperature;BME280_humidity;BME280_pressure;Samples;Min_cycle;Max_cycle;Signal;HPM_P1;HPM_P2
2022/07/16 00:02:04;;;;;;;6.05;2.40;;;;;;;;;;5094310;28;20035;-78
2022/07/16 00:04:30;;;;;;;4.50;2.40;;;;;;;;;;5077541;28;20035;-78
2022/07/16 00:06:56;;;;;;;5.20;2.17;;;;;;;;;;5077386;28;20053;-77
2022/07/16 00:09:22;;;;;;;5.20;2.30;;;;;;;;;;5094549;28;20032;-78
2022/07/16 00:11:49;;;;;;;5.40;2.20;;;;;;;;;;5076859;28;20035;-79
2022/07/16 00:14:15;;;;;;;4.88;1.90;;;;;;;;;;5094559;28;20031;-77
2022/07/16 00:16:41;;;;;;;3.92;2.20;;;;;;;;;;5094070;28;20048;-80
2022/07/16 00:19:16;;;;;;;4.78;2.33;;;;;;;;;;5094386;28;20044;-78
2022/07/16 00:21:43;;;;;;;4.18;2.00;;;;;;;;;;5094487;28;20039;-79
2022/07/16 00:24:09;;;;;;;5.13;2.10;;;;;;;;;;5094339;28;20051;-78
2022/07/16 00:26:36;;;;;;;6.95;2.10;;;;;;;;;;5076839;28;20063;-78
2022/07/16 00:29:02;;;;;;;3.92;1.70;;;;;;;;;;5094664;28;20391;-79
2022/07/16 00:31:28;;;;;;;4.38;2.00;;;;;;;;;;5094227;28;20059;-79
2022/07/16 00:33:54;;;;;;;4.95;1.88;;;;;;;;;;5094104;28;20080;-79
2022/07/16 00:36:20;;;;;;;4.93;1.88;;;;;;;;;;5094334;28;20451;-80
2022/07/16 00:38:47;;;;;;;3.47;2.00;;;;;;;;;;5093725;28;20036;-78
2022/07/16 00:41:19;;;;;;;5.72;1.90;;;;;;;;;;5093838;28;20051;-78
2022/07/16 00:43:49;;;;;;;4.45;2.10;;;;;;;;;;5093915;28;20399;-77
2022/07/16 00:46:15;;;;;;;5.18;2.10;;;;;;;;;;5093771;28;20039;-78
2022/07/16 00:48:42;;;;;;;6.07;2.20;;;;;;;;;;5093804;28;20607;-78
2022/07/16 00:51:08;;;;;;;4.53;2.03;;;;;;;;;;5080496;28;20039;-78
2022/07/16 00:53:35;;;;;;;4.97;1.90;;;;;;;;;;5097708;28;20456;-78
2022/07/16 00:56:01;;;;;;;3.75;2.25;;;;;;;;;;5098424;28;20536;-78
2022/07/16 00:58:27;;;;;;;5.93;2.10;;;;;;;;;;5097672;28;20048;-80
2022/07/16 01:00:54;;;;;;;9.35;2.97;;;;;;;;;;5080596;28;20126;-80
2022/07/16 01:03:20;;;;;;;10.25;2.97;;;;;;;;;;5064583;28;20039;-81
2022/07/16 01:05:46;;;;;;;6.43;3.00;;;;;;;;;;5097387;28;20048;-80
2022/07/16 01:08:12;;;;;;;6.97;2.80;;;;;;;;;;5080806;28;20100;-81
2022/07/16 01:10:39;;;;;;;6.28;2.88;;;;;;;;;;5080555;28;20036;-82
2022/07/16 01:13:06;;;;;;;5.53;2.88;;;;;;;;;;5097971;28;20575;-81
2022/07/16 01:15:32;;;;;;;8.88;3.03;;;;;;;;;;5097355;28;20047;-81
2022/07/16 01:17:58;;;;;;;8.68;3.55;;;;;;;;;;5080311;28;20040;-80
2022/07/16 01:20:25;;;;;;;7.13;3.38;;;;;;;;;;5064250;28;20071;-80
2022/07/16 01:22:53;;;;;;;6.25;3.40;;;;;;;;;;5080142;28;20067;-80
2022/07/16 01:25:20;;;;;;;10.73;4.38;;;;;;;;;;5080694;28;20048;-81
2022/07/16 01:27:46;;;;;;;9.80;3.55;;;;;;;;;;5090358;28;20496;-83
2022/07/16 01:30:12;;;;;;;6.68;3.08;;;;;;;;;;5090060;28;20043;-81
2022/07/16 01:32:39;;;;;;;5.63;2.38;;;;;;;;;;5096594;28;20051;-83
2022/07/16 01:35:05;;;;;;;4.65;1.60;;;;;;;;;;5080675;28;20117;-81
2022/07/16 01:37:31;;;;;;;6.60;1.83;;;;;;;;;;5080140;28;20093;-82
2022/07/16 01:39:58;;;;;;;5.43;1.92;;;;;;;;;;5096855;28;20482;-80
2022/07/16 01:42:24;;;;;;;5.10;1.80;;;;;;;;;;5097169;28;20464;-79
2022/07/16 01:44:50;;;;;;;6.75;1.63;;;;;;;;;;5079687;28;20043;-82
2022/07/16 01:47:16;;;;;;;4.18;1.60;;;;;;;;;;5097007;28;20118;-81
2022/07/16 01:49:42;;;;;;;5.65;1.80;;;;;;;;;;5096428;28;20044;-82
2022/07/16 01:52:10;;;;;;;5.60;1.70;;;;;;;;;;5080284;28;20043;-81
2022/07/16 01:54:37;;;;;;;6.50;1.80;;;;;;;;;;5079929;28;20050;-81
2022/07/16 01:57:03;;;;;;;4.43;1.52;;;;;;;;;;5096464;28;20400;-81
2022/07/16 01:59:29;;;;;;;9.30;1.50;;;;;;;;;;5096995;28;20484;-79
2022/07/16 02:01:55;;;;;;;4.63;1.60;;;;;;;;;;5076812;28;20484;-81
2022/07/16 02:04:21;;;;;;;6.10;1.33;;;;;;;;;;5093178;28;20032;-82
2022/07/16 02:06:47;;;;;;;5.65;1.80;;;;;;;;;;5095153;28;20511;-81
2022/07/16 02:09:13;;;;;;;4.35;1.48;;;;;;;;;;5098022;28;20036;-80
2022/07/16 02:11:39;;;;;;;2.88;1.50;;;;;;;;;;5096505;28;20044;-80
2022/07/16 02:14:05;;;;;;;5.13;2.03;;;;;;;;;;5095989;28;20043;-80
2022/07/16 02:16:31;;;;;;;7.60;1.88;;;;;;;;;;5096315;28;20121;-80
2022/07/16 02:18:58;;;;;;;4.57;1.63;;;;;;;;;;5095857;28;20047;-79
2022/07/16 02:21:24;;;;;;;7.60;1.90;;;;;;;;;;5096247;28;20082;-80
2022/07/16 02:23:50;;;;;;;4.95;1.83;;;;;;;;;;5095971;28;20510;-81
2022/07/16 02:26:16;;;;;;;5.72;1.52;;;;;;;;;;5096298;28;20040;-80
2022/07/16 02:28:42;;;;;;;6.13;1.85;;;;;;;;;;5095885;28;20032;-81
2022/07/16 02:31:08;;;;;;;6.32;2.10;;;;;;;;;;5095670;28;20036;-81
2022/07/16 02:33:34;;;;;;;6.13;1.90;;;;;;;;;;5095812;28;20055;-80
2022/07/16 02:36:00;;;;;;;4.55;1.70;;;;;;;;;;5078452;28;20047;-81
2022/07/16 02:38:26;;;;;;;5.10;2.08;;;;;;;;;;5096187;28;20508;-80
2022/07/16 02:40:52;;;;;;;4.15;1.70;;;;;;;;;;5095537;28;20043;-81
2022/07/16 02:43:18;;;;;;;6.38;2.15;;;;;;;;;;5095765;28;20061;-79
2022/07/16 02:45:44;;;;;;;6.03;2.13;;;;;;;;;;5095577;28;20039;-80
2022/07/16 02:48:11;;;;;;;4.85;1.80;;;;;;;;;;5079112;28;20075;-80
2022/07/16 02:50:37;;;;;;;3.83;1.95;;;;;;;;;;5075783;28;20079;-80
2022/07/16 02:53:03;;;;;;;5.70;1.92;;;;;;;;;;5080149;28;20403;-80
2022/07/16 02:55:30;;;;;;;6.53;1.98;;;;;;;;;;5095184;28;20047;-79
2022/07/16 02:57:56;;;;;;;5.35;1.80;;;;;;;;;;5081722;28;20491;-77
2022/07/16 03:00:22;;;;;;;3.42;1.52;;;;;;;;;;5095662;28;20039;-80
2022/07/16 03:02:49;;;;;;;5.43;1.85;;;;;;;;;;5095458;28;20373;-80
2022/07/16 03:05:15;;;;;;;5.75;1.80;;;;;;;;;;5095302;28;20047;-79
2022/07/16 03:07:41;;;;;;;4.75;1.50;;;;;;;;;;5095217;28;20043;-78
2022/07/16 03:10:08;;;;;;;5.47;1.70;;;;;;;;;;5095091;28;20039;-78
2022/07/16 03:12:34;;;;;;;3.05;1.40;;;;;;;;;;5095133;28;20035;-79
2022/07/16 03:15:03;;;;;;;6.63;1.70;;;;;;;;;;5094975;28;20040;-79
2022/07/16 03:17:29;;;;;;;5.03;1.45;;;;;;;;;;5095018;28;20062;-79
2022/07/16 03:19:55;;;;;;;2.58;1.35;;;;;;;;;;5094765;28;20058;-80
2022/07/16 03:22:21;;;;;;;4.95;1.30;;;;;;;;;;5078160;28;20126;-80
2022/07/16 03:24:47;;;;;;;6.93;1.98;;;;;;;;;;5095163;28;20054;-80
2022/07/16 03:27:14;;;;;;;4.15;1.30;;;;;;;;;;5094934;28;20064;-80
2022/07/16 03:29:40;;;;;;;4.40;1.50;;;;;;;;;;5094868;28;20046;-78
2022/07/16 03:32:07;;;;;;;6.03;1.60;;;;;;;;;;5090957;28;20052;-77
2022/07/16 03:34:35;;;;;;;4.05;1.60;;;;;;;;;;5091511;28;20078;-80
2022/07/16 03:37:01;;;;;;;5.55;1.52;;;;;;;;;;5091227;28;20400;-79
2022/07/16 03:39:27;;;;;;;4.57;1.50;;;;;;;;;;5091422;28;20123;-79
2022/07/16 03:41:53;;;;;;;5.63;1.83;;;;;;;;;;5091026;28;20059;-79
2022/07/16 03:44:19;;;;;;;5.40;2.00;;;;;;;;;;5074530;28;20178;-80
2022/07/16 03:46:45;;;;;;;6.47;2.17;;;;;;;;;;5090864;28;20040;-79
2022/07/16 03:49:12;;;;;;;4.63;2.47;;;;;;;;;;5091070;28;20484;-79
2022/07/16 03:51:38;;;;;;;4.88;2.40;;;;;;;;;;5091356;28;20061;-79
2022/07/16 03:54:04;;;;;;;4.65;2.40;;;;;;;;;;5073869;28;20040;-79
2022/07/16 03:56:31;;;;;;;5.13;2.00;;;;;;;;;;5080456;28;20401;-79
2022/07/16 03:58:57;;;;;;;6.18;1.90;;;;;;;;;;5087973;28;20117;-79
2022/07/16 04:01:23;;;;;;;6.45;1.85;;;;;;;;;;5089558;28;20050;-79
2022/07/16 04:03:50;;;;;;;4.85;1.60;;;;;;;;;;5085744;28;20047;-79
2022/07/16 04:06:16;;;;;;;7.65;1.80;;;;;;;;;;5089309;28;20290;-80
2022/07/16 04:08:42;;;;;;;4.18;1.63;;;;;;;;;;5090555;28;20040;-79
2022/07/16 04:11:08;;;;;;;4.43;1.70;;;;;;;;;;5090547;28;20036;-79
2022/07/16 04:13:37;;;;;;;4.60;1.73;;;;;;;;;;5090881;28;20181;-79
2022/07/16 04:16:03;;;;;;;3.03;1.55;;;;;;;;;;5090864;28;20039;-79
2022/07/16 04:18:29;;;;;;;3.67;1.60;;;;;;;;;;5090509;28;20044;-77
2022/07/16 04:20:55;;;;;;;3.80;1.70;;;;;;;;;;5091028;28;20511;-79
2022/07/16 04:23:21;;;;;;;5.25;1.88;;;;;;;;;;5090580;28;20047;-78
2022/07/16 04:25:47;;;;;;;6.18;1.70;;;;;;;;;;5093626;28;20040;-78
2022/07/16 04:28:13;;;;;;;6.53;1.73;;;;;;;;;;5077874;28;20039;-78
2022/07/16 04:30:40;;;;;;;8.82;1.90;;;;;;;;;;5078207;28;20071;-77
2022/07/16 04:33:06;;;;;;;5.75;1.52;;;;;;;;;;5094360;28;20500;-78
2022/07/16 04:35:32;;;;;;;5.78;1.70;;;;;;;;;;5061240;28;20047;-78
2022/07/16 04:37:58;;;;;;;5.30;1.60;;;;;;;;;;5094711;28;20112;-78
2022/07/16 04:40:24;;;;;;;4.30;1.50;;;;;;;;;;5094352;28;20036;-78
2022/07/16 04:42:50;;;;;;;5.13;1.55;;;;;;;;;;5075124;28;20068;-78
2022/07/16 04:45:16;;;;;;;5.32;1.95;;;;;;;;;;5094345;28;20051;-78
2022/07/16 04:47:43;;;;;;;5.80;1.60;;;;;;;;;;5094675;28;20483;-78
2022/07/16 04:50:09;;;;;;;8.05;1.63;;;;;;;;;;5077648;28;20047;-77
2022/07/16 04:52:35;;;;;;;3.72;1.30;;;;;;;;;;5095137;28;20485;-77
2022/07/16 04:55:02;;;;;;;6.47;1.70;;;;;;;;;;5094404;28;20093;-78
2022/07/16 04:57:28;;;;;;;8.57;1.73;;;;;;;;;;5080187;28;20040;-78
2022/07/16 04:59:54;;;;;;;3.80;1.20;;;;;;;;;;5094651;28;20044;-77
2022/07/16 05:05:05;;;;;;;5.10;1.17;;;;;;;;;;5094030;28;20052;-79
2022/07/16 05:07:31;;;;;;;7.25;1.30;;;;;;;;;;5094430;28;20071;-80
2022/07/16 05:09:57;;;;;;;3.38;1.08;;;;;;;;;;5094531;28;20512;-79
2022/07/16 05:12:23;;;;;;;3.80;1.05;;;;;;;;;;5076981;28;20044;-78
2022/07/16 05:14:50;;;;;;;4.50;1.23;;;;;;;;;;5095503;28;20048;-78
2022/07/16 05:17:16;;;;;;;5.18;1.00;;;;;;;;;;5093986;28;20044;-80
2022/07/16 05:19:42;;;;;;;4.85;1.45;;;;;;;;;;5093762;28;20127;-78
2022/07/16 05:22:08;;;;;;;5.18;1.15;;;;;;;;;;5094017;28;20044;-78
2022/07/16 05:24:36;;;;;;;4.50;1.08;;;;;;;;;;5093624;28;20093;-78
2022/07/16 05:27:02;;;;;;;3.65;0.90;;;;;;;;;;5094226;28;20051;-78
2022/07/16 05:29:28;;;;;;;5.10;1.10;;;;;;;;;;5093571;28;20484;-79
2022/07/16 05:31:55;;;;;;;3.80;1.13;;;;;;;;;;5093759;28;20056;-78
2022/07/16 05:34:21;;;;;;;3.90;1.15;;;;;;;;;;5093475;28;20123;-78
2022/07/16 05:36:47;;;;;;;5.53;1.17;;;;;;;;;;5093892;28;20036;-78
2022/07/16 05:39:13;;;;;;;4.70;1.25;;;;;;;;;;5060153;28;20044;-79
2022/07/16 05:41:39;;;;;;;5.55;1.13;;;;;;;;;;5077063;28;20078;-78
2022/07/16 05:44:05;;;;;;;3.50;0.90;;;;;;;;;;5077213;28;20048;-79
2022/07/16 05:46:31;;;;;;;4.55;1.13;;;;;;;;;;5093590;28;20039;-81
2022/07/16 05:48:57;;;;;;;3.33;1.30;;;;;;;;;;5093729;28;20393;-81
2022/07/16 05:51:23;;;;;;;4.15;1.10;;;;;;;;;;5076187;28;20044;-78
2022/07/16 05:53:49;;;;;;;3.65;1.00;;;;;;;;;;5076494;28;20058;-80
2022/07/16 05:56:15;;;;;;;4.47;0.80;;;;;;;;;;5084054;28;20090;-78
2022/07/16 05:58:41;;;;;;;4.43;1.20;;;;;;;;;;5088495;28;20044;-78
2022/07/16 06:01:07;;;;;;;3.70;1.30;;;;;;;;;;5076493;28;20036;-80
2022/07/16 06:03:34;;;;;;;4.18;1.05;;;;;;;;;;5093324;28;20040;-80
2022/07/16 06:06:00;;;;;;;3.53;0.90;;;;;;;;;;5092890;28;20040;-82
2022/07/16 06:08:26;;;;;;;3.60;1.02;;;;;;;;;;5092782;28;20044;-80
2022/07/16 06:10:52;;;;;;;4.35;0.90;;;;;;;;;;5090262;28;20409;-83
2022/07/16 06:13:18;;;;;;;4.68;1.02;;;;;;;;;;5065305;28;20035;-79
2022/07/16 06:15:44;;;;;;;3.97;0.90;;;;;;;;;;5093306;28;20532;-79
2022/07/16 06:18:10;;;;;;;3.47;1.00;;;;;;;;;;5093359;28;20365;-82
2022/07/16 06:20:36;;;;;;;3.72;0.98;;;;;;;;;;5075502;28;20043;-80
2022/07/16 06:23:02;;;;;;;5.15;1.05;;;;;;;;;;5092701;28;20058;-79
2022/07/16 06:25:28;;;;;;;5.20;1.10;;;;;;;;;;5092576;28;20177;-80
2022/07/16 06:27:54;;;;;;;3.45;0.90;;;;;;;;;;5092789;28;20032;-80
2022/07/16 06:30:20;;;;;;;3.88;0.85;;;;;;;;;;5092469;28;20058;-79
2022/07/16 06:32:46;;;;;;;3.28;0.90;;;;;;;;;;5059123;28;20148;-83
2022/07/16 06:35:13;;;;;;;5.18;1.00;;;;;;;;;;5092746;28;20074;-83
2022/07/16 06:37:39;;;;;;;4.53;0.90;;;;;;;;;;5092488;28;20517;-80
2022/07/16 06:40:06;;;;;;;4.93;1.10;;;;;;;;;;5092449;28;20048;-80
2022/07/16 06:42:32;;;;;;;3.33;0.77;;;;;;;;;;5075626;28;20044;-81
2022/07/16 06:44:58;;;;;;;4.35;1.00;;;;;;;;;;5092334;28;20086;-83
2022/07/16 06:47:25;;;;;;;4.22;0.80;;;;;;;;;;5074822;28;20118;-80
2022/07/16 06:49:51;;;;;;;4.47;0.90;;;;;;;;;;5092410;28;20086;-83
2022/07/16 06:52:17;;;;;;;4.50;1.00;;;;;;;;;;5092002;28;20097;-80
2022/07/16 06:54:43;;;;;;;4.13;1.00;;;;;;;;;;5092529;28;20499;-82
2022/07/16 06:57:09;;;;;;;5.47;0.70;;;;;;;;;;5078051;28;20048;-79
2022/07/16 06:59:35;;;;;;;5.15;1.00;;;;;;;;;;5091884;28;20063;-80
2022/07/16 07:02:01;;;;;;;5.18;1.00;;;;;;;;;;5092278;28;20175;-79
2022/07/16 07:04:27;;;;;;;3.95;0.90;;;;;;;;;;5092087;28;20070;-79
2022/07/16 07:06:53;;;;;;;4.10;0.88;;;;;;;;;;5091952;28;20401;-84
2022/07/16 07:09:19;;;;;;;3.60;0.90;;;;;;;;;;5075296;28;20036;-80
2022/07/16 07:11:46;;;;;;;4.40;0.82;;;;;;;;;;5092383;28;20040;-79
2022/07/16 07:14:12;;;;;;;6.03;1.08;;;;;;;;;;5075390;28;20127;-79
2022/07/16 07:16:38;;;;;;;5.45;0.90;;;;;;;;;;5092335;28;20043;-79
2022/07/16 07:19:04;;;;;;;4.47;1.05;;;;;;;;;;5092378;28;20050;-78
2022/07/16 07:21:31;;;;;;;4.03;0.80;;;;;;;;;;5092018;28;20048;-79
2022/07/16 07:23:58;;;;;;;7.18;1.00;;;;;;;;;;5092297;28;20067;-80
2022/07/16 07:26:24;;;;;;;5.28;0.85;;;;;;;;;;5091830;28;20048;-79
2022/07/16 07:28:50;;;;;;;3.85;1.00;;;;;;;;;;5092411;28;20046;-80
2022/07/16 07:31:17;;;;;;;5.22;1.00;;;;;;;;;;5074943;28;20082;-78
2022/07/16 07:33:44;;;;;;;3.88;0.80;;;;;;;;;;5091654;28;20087;-79
2022/07/16 07:36:10;;;;;;;4.05;0.90;;;;;;;;;;5074991;28;20043;-80
2022/07/16 07:38:36;;;;;;;5.38;1.05;;;;;;;;;;5091549;28;20508;-84
2022/07/16 07:41:03;;;;;;;5.03;0.85;;;;;;;;;;5091955;28;20134;-80
2022/07/16 07:43:29;;;;;;;4.55;1.00;;;;;;;;;;5074563;28;20044;-80
2022/07/16 07:45:55;;;;;;;3.30;0.73;;;;;;;;;;5091730;28;20404;-81
2022/07/16 07:48:22;;;;;;;4.63;0.95;;;;;;;;;;5091495;28;20075;-81
2022/07/16 07:50:48;;;;;;;4.65;0.80;;;;;;;;;;5091741;28;20067;-78
2022/07/16 07:53:14;;;;;;;5.10;0.98;;;;;;;;;;5092160;28;20542;-81
2022/07/16 07:55:41;;;;;;;3.78;0.80;;;;;;;;;;5087580;28;20409;-80
2022/07/16 07:58:08;;;;;;;2.80;1.00;;;;;;;;;;5082030;28;20051;-80
2022/07/16 08:00:34;;;;;;;3.50;0.80;;;;;;;;;;5090349;28;20044;-81
2022/07/16 08:03:00;;;;;;;2.70;0.70;;;;;;;;;;5071455;28;20044;-83
2022/07/16 08:05:26;;;;;;;3.67;0.85;;;;;;;;;;5068836;28;20516;-80
2022/07/16 08:07:52;;;;;;;3.28;0.63;;;;;;;;;;5091346;28;20130;-82
2022/07/16 08:10:18;;;;;;;5.15;0.80;;;;;;;;;;5091698;28;20040;-82
2022/07/16 08:12:45;;;;;;;3.33;0.80;;;;;;;;;;5092206;28;20079;-82
2022/07/16 08:15:11;;;;;;;4.28;0.80;;;;;;;;;;5091455;28;20048;-81
2022/07/16 08:17:37;;;;;;;3.55;0.77;;;;;;;;;;5090910;28;20044;-81
2022/07/16 08:20:04;;;;;;;3.97;0.95;;;;;;;;;;5091047;28;20078;-81
2022/07/16 08:22:30;;;;;;;4.53;0.90;;;;;;;;;;5091076;28;20561;-83
2022/07/16 08:27:40;;;;;;;4.47;0.80;;;;;;;;;;5090793;28;20052;-81
2022/07/16 08:30:07;;;;;;;4.60;1.00;;;;;;;;;;5091381;28;20499;-82
2022/07/16 08:32:33;;;;;;;4.15;0.88;;;;;;;;;;5090595;28;20052;-81
2022/07/16 08:34:59;;;;;;;3.78;0.90;;;;;;;;;;5074400;28;20078;-82
2022/07/16 08:37:42;;;;;;;4.03;0.70;;;;;;;;;;5091298;28;20191;-80
2022/07/16 08:40:13;;;;;;;2.72;0.70;;;;;;;;;;5091148;28;20040;-83
2022/07/16 08:42:40;;;;;;;3.05;0.70;;;;;;;;;;5090967;28;20615;-81
2022/07/16 08:45:07;;;;;;;2.80;0.80;;;;;;;;;;5090782;28;20044;-80
2022/07/16 08:47:34;;;;;;;3.40;0.73;;;;;;;;;;5090771;28;20044;-80
2022/07/16 08:50:01;;;;;;;3.00;0.80;;;;;;;;;;5074487;28;20358;-81
2022/07/16 08:52:28;;;;;;;4.13;0.85;;;;;;;;;;5074011;28;20040;-81
2022/07/16 08:54:55;;;;;;;4.38;0.80;;;;;;;;;;5090534;28;20036;-82
2022/07/16 08:57:21;;;;;;;1.73;0.60;;;;;;;;;;5074041;28;20038;-79
2022/07/16 08:59:48;;;;;;;2.85;1.00;;;;;;;;;;5090506;28;20043;-80
2022/07/16 09:02:14;;;;;;;4.25;0.93;;;;;;;;;;5090719;28;20036;-80
2022/07/16 09:04:42;;;;;;;3.60;0.90;;;;;;;;;;5090625;28;20036;-82
2022/07/16 09:07:11;;;;;;;5.75;0.95;;;;;;;;;;5092123;28;20119;-84
2022/07/16 09:09:37;;;;;;;4.50;0.80;;;;;;;;;;5090666;28;20048;-85
2022/07/16 09:12:04;;;;;;;4.18;0.90;;;;;;;;;;5080870;28;20374;-85
2022/07/16 09:14:30;;;;;;;2.55;0.70;;;;;;;;;;5093490;28;20123;-82
2022/07/16 09:16:56;;;;;;;2.90;0.90;;;;;;;;;;5077511;28;20058;-80
2022/07/16 09:19:27;;;;;;;3.83;0.80;;;;;;;;;;5077792;28;20038;-83
2022/07/16 09:21:59;;;;;;;10.93;1.50;;;;;;;;;;5094274;28;20097;-85
2022/07/16 09:24:32;;;;;;;4.65;0.70;;;;;;;;;;5080309;28;20051;-82
2022/07/16 09:27:09;;;;;;;3.22;0.70;;;;;;;;;;5094170;28;20443;-83
2022/07/16 09:29:45;;;;;;;4.10;1.08;;;;;;;;;;5094472;28;20036;-82
2022/07/16 09:32:11;;;;;;;6.88;1.05;;;;;;;;;;5077781;28;20504;-84
2022/07/16 09:34:38;;;;;;;2.47;0.75;;;;;;;;;;5094023;28;20044;-80
2022/07/16 09:37:07;;;;;;;6.78;1.48;;;;;;;;;;5094629;28;20100;-81
2022/07/16 09:39:34;;;;;;;3.05;0.80;;;;;;;;;;5093927;28;20048;-87
2022/07/16 09:42:00;;;;;;;3.15;0.70;;;;;;;;;;5094040;28;20438;-80
2022/07/16 09:44:27;;;;;;;4.05;0.70;;;;;;;;;;5077472;28;20178;-84
2022/07/16 09:47:22;;;;;;;6.10;1.20;;;;;;;;;;5093539;28;20040;-82
2022/07/16 09:49:52;;;;;;;18.55;1.90;;;;;;;;;;5090901;28;20052;-83
2022/07/16 09:52:31;;;;;;;9.18;1.65;;;;;;;;;;5094242;28;20477;-82
2022/07/16 09:54:57;;;;;;;4.28;0.80;;;;;;;;;;5093273;28;20035;-86
2022/07/16 09:57:25;;;;;;;13.90;1.58;;;;;;;;;;5077294;28;20369;-83
2022/07/16 09:59:52;;;;;;;6.97;0.98;;;;;;;;;;5093470;28;20050;-81
2022/07/16 10:02:18;;;;;;;6.53;0.90;;;;;;;;;;5093799;28;20141;-81
2022/07/16 10:04:44;;;;;;;11.52;1.65;;;;;;;;;;5093393;28;20114;-80
2022/07/16 10:07:10;;;;;;;4.15;0.77;;;;;;;;;;5077281;28;20032;-82
2022/07/16 10:09:37;;;;;;;4.95;0.88;;;;;;;;;;5094665;28;20120;-83
2022/07/16 10:12:09;;;;;;;5.80;0.70;;;;;;;;;;5093345;28;20032;-84
2022/07/16 10:14:35;;;;;;;3.70;0.68;;;;;;;;;;5076667;28;20039;-81
2022/07/16 10:17:10;;;;;;;4.22;0.98;;;;;;;;;;5093468;28;20563;-80
2022/07/16 10:19:37;;;;;;;3.60;0.90;;;;;;;;;;5093439;28;20036;-83
2022/07/16 10:22:18;;;;;;;4.22;0.98;;;;;;;;;;5092185;28;20127;-82
2022/07/16 10:24:45;;;;;;;3.35;0.85;;;;;;;;;;5092766;28;20579;-83
2022/07/16 10:27:18;;;;;;;3.97;0.90;;;;;;;;;;5093690;28;20040;-81
2022/07/16 10:29:44;;;;;;;4.28;0.90;;;;;;;;;;5092616;28;20040;-80
2022/07/16 10:32:29;;;;;;;3.75;0.82;;;;;;;;;;5095972;28;20047;-78
2022/07/16 10:34:56;;;;;;;7.30;0.93;;;;;;;;;;5113158;28;20092;-84
2022/07/16 10:37:27;;;;;;;4.85;0.90;;;;;;;;;;5096359;28;20097;-83
2022/07/16 10:40:06;;;;;;;4.18;0.95;;;;;;;;;;5096076;28;20492;-85
2022/07/16 10:42:32;;;;;;;4.72;1.00;;;;;;;;;;5096550;28;20040;-83
2022/07/16 10:44:59;;;;;;;4.53;0.90;;;;;;;;;;5095728;28;20028;-85
2022/07/16 10:47:44;;;;;;;4.35;1.00;;;;;;;;;;5096447;28;20045;-79
2022/07/16 10:50:14;;;;;;;4.05;0.70;;;;;;;;;;5096009;28;20031;-81
2022/07/16 10:52:41;;;;;;;3.90;0.88;;;;;;;;;;5096181;28;20078;-81
2022/07/16 10:55:07;;;;;;;3.65;0.73;;;;;;;;;;5095838;28;20043;-81
2022/07/16 10:57:35;;;;;;;4.13;0.80;;;;;;;;;;5081524;28;20044;-82
2022/07/16 11:00:02;;;;;;;4.47;0.93;;;;;;;;;;5095189;28;20043;-83
2022/07/16 11:02:28;;;;;;;3.58;0.90;;;;;;;;;;5095661;28;20040;-81
2022/07/16 11:04:54;;;;;;;5.00;1.05;;;;;;;;;;5095297;28;20479;-85
2022/07/16 11:07:21;;;;;;;4.50;1.20;;;;;;;;;;5095775;28;20441;-82
2022/07/16 11:09:53;;;;;;;3.63;0.90;;;;;;;;;;5095531;28;20039;-83
2022/07/16 11:12:24;;;;;;;5.40;1.25;;;;;;;;;;5095153;28;20044;-82
2022/07/16 11:15:00;;;;;;;9.40;1.20;;;;;;;;;;5095189;28;20035;-83
2022/07/16 11:17:29;;;;;;;5.47;1.10;;;;;;;;;;5095280;28;20071;-85
2022/07/16 11:19:56;;;;;;;6.47;0.85;;;;;;;;;;5094818;28;20047;-82
2022/07/16 11:22:23;;;;;;;2.97;0.85;;;;;;;;;;5095453;28;20054;-81
2022/07/16 11:24:54;;;;;;;3.42;0.80;;;;;;;;;;5088927;28;20122;-82
2022/07/16 11:27:33;;;;;;;5.18;1.15;;;;;;;;;;5106085;28;20051;-82
2022/07/16 11:30:00;;;;;;;4.28;1.17;;;;;;;;;;5094715;28;20039;-79
2022/07/16 11:32:27;;;;;;;4.32;0.95;;;;;;;;;;5094937;28;20523;-82
2022/07/16 11:34:53;;;;;;;4.82;0.90;;;;;;;;;;5094451;28;20130;-80
2022/07/16 11:37:19;;;;;;;4.32;0.93;;;;;;;;;;5094957;28;20096;-80
2022/07/16 11:39:46;;;;;;;3.90;0.90;;;;;;;;;;5094806;28;20087;-80
2022/07/16 11:42:12;;;;;;;4.60;0.85;;;;;;;;;;5094076;28;20035;-80
2022/07/16 11:44:39;;;;;;;4.15;0.98;;;;;;;;;;5095022;28;20487;-80
2022/07/16 11:47:07;;;;;;;2.72;0.80;;;;;;;;;;5094413;28;20104;-79
2022/07/16 11:49:43;;;;;;;4.07;0.95;;;;;;;;;;5094841;28;20035;-83
2022/07/16 11:52:22;;;;;;;3.42;0.95;;;;;;;;;;5081123;28;20036;-79
2022/07/16 11:54:49;;;;;;;3.80;0.90;;;;;;;;;;5094655;28;20039;-82
2022/07/16 11:57:15;;;;;;;2.75;0.90;;;;;;;;;;5094149;28;20069;-81
2022/07/16 11:59:52;;;;;;;4.60;0.80;;;;;;;;;;5094939;28;20515;-81
2022/07/16 12:02:26;;;;;;;4.95;1.13;;;;;;;;;;5094332;28;20515;-81
2022/07/16 12:04:53;;;;;;;5.07;1.30;;;;;;;;;;5094562;28;20032;-80
2022/07/16 12:07:25;;;;;;;4.38;1.10;;;;;;;;;;5094364;28;20381;-79
2022/07/16 12:09:53;;;;;;;3.65;0.82;;;;;;;;;;5095083;28;20491;-82
2022/07/16 12:12:20;;;;;;;5.32;1.00;;;;;;;;;;5093854;28;20051;-82
2022/07/16 12:15:19;;;;;;;4.43;0.88;;;;;;;;;;5094618;28;20043;-79
2022/07/16 12:17:46;;;;;;;4.93;0.98;;;;;;;;;;5050405;28;20047;-79
2022/07/16 12:20:19;;;;;;;4.45;1.00;;;;;;;;;;5094035;28;20129;-78
2022/07/16 12:22:54;;;;;;;3.25;0.75;;;;;;;;;;5094317;28;20116;-83
2022/07/16 12:25:34;;;;;;;4.43;0.80;;;;;;;;;;5083575;28;20248;-82
2022/07/16 12:28:03;;;;;;;4.70;0.90;;;;;;;;;;5091848;28;20039;-81
2022/07/16 12:30:36;;;;;;;6.43;0.90;;;;;;;;;;5094338;28;20058;-81
2022/07/16 12:33:07;;;;;;;4.13;0.93;;;;;;;;;;5093306;28;20047;-80
2022/07/16 12:35:34;;;;;;;5.78;1.45;;;;;;;;;;5094577;28;20044;-81
2022/07/16 12:38:00;;;;;;;4.25;0.93;;;;;;;;;;5094082;28;20047;-81
2022/07/16 12:40:26;;;;;;;3.15;0.95;;;;;;;;;;5112866;28;20043;-80
2022/07/16 12:42:52;;;;;;;4.80;0.93;;;;;;;;;;5094150;28;20151;-76
2022/07/16 12:45:18;;;;;;;3.75;1.00;;;;;;;;;;5094297;28;20043;-82
2022/07/16 12:47:44;;;;;;;5.55;0.90;;;;;;;;;;5098372;28;20071;-79
2022/07/16 12:50:10;;;;;;;5.38;1.08;;;;;;;;;;5098381;28;20045;-81
2022/07/16 12:52:36;;;;;;;3.30;0.88;;;;;;;;;;5116608;28;20537;-80
2022/07/16 13:00:35;;;;;;;4.68;1.27;;;;;;;;;;5098518;28;20071;-79
2022/07/16 13:03:02;;;;;;;3.22;1.10;;;;;;;;;;5098128;28;20071;-81
2022/07/16 13:05:29;;;;;;;7.18;1.13;;;;;;;;;;5095592;28;20493;-81
2022/07/16 13:07:55;;;;;;;4.10;1.00;;;;;;;;;;5098254;28;20035;-80
2022/07/16 13:10:22;;;;;;;5.35;1.00;;;;;;;;;;5097668;28;20085;-81
2022/07/16 13:12:48;;;;;;;3.28;0.90;;;;;;;;;;5097968;28;20061;-80
2022/07/16 13:15:16;;;;;;;4.10;1.02;;;;;;;;;;5097803;28;20112;-79
2022/07/16 13:17:43;;;;;;;4.25;0.93;;;;;;;;;;5097934;28;20088;-79
2022/07/16 13:20:11;;;;;;;7.07;1.30;;;;;;;;;;5097963;28;20046;-81
2022/07/16 13:22:37;;;;;;;4.15;1.30;;;;;;;;;;5097950;28;20040;-83
2022/07/16 13:25:03;;;;;;;5.60;0.90;;;;;;;;;;5098159;28;20036;-82
2022/07/16 13:27:29;;;;;;;3.88;1.00;;;;;;;;;;5097528;28;20050;-82
2022/07/16 13:29:55;;;;;;;5.22;1.10;;;;;;;;;;5097846;28;20035;-82
2022/07/16 13:32:21;;;;;;;4.38;1.10;;;;;;;;;;5096954;28;20083;-84
2022/07/16 13:34:47;;;;;;;4.65;1.15;;;;;;;;;;5097532;28;20143;-82
2022/07/16 13:37:14;;;;;;;3.17;0.90;;;;;;;;;;5097316;28;20046;-82
2022/07/16 13:39:40;;;;;;;4.25;1.27;;;;;;;;;;5097494;28;20050;-81
2022/07/16 13:42:06;;;;;;;4.28;1.08;;;;;;;;;;5097782;28;20504;-80
2022/07/16 13:44:32;;;;;;;3.75;1.10;;;;;;;;;;5115678;28;20480;-79
2022/07/16 13:46:58;;;;;;;2.75;0.73;;;;;;;;;;5097548;28;20122;-81
2022/07/16 13:49:24;;;;;;;7.43;1.00;;;;;;;;;;5097356;28;20040;-80
2022/07/16 13:51:50;;;;;;;4.10;1.00;;;;;;;;;;5097460;28;20036;-81
2022/07/16 13:54:17;;;;;;;3.47;0.88;;;;;;;;;;5097108;28;20043;-80
2022/07/16 13:56:45;;;;;;;4.20;1.20;;;;;;;;;;5083432;28;20173;-80
2022/07/16 13:59:14;;;;;;;4.18;0.95;;;;;;;;;;5078052;28;20047;-79
2022/07/16 14:01:40;;;;;;;3.42;0.90;;;;;;;;;;5097305;28;20502;-82
2022/07/16 14:04:09;;;;;;;3.97;0.90;;;;;;;;;;5096932;28;20039;-82
2022/07/16 14:06:36;;;;;;;2.78;0.80;;;;;;;;;;5096815;28;20047;-79
2022/07/16 14:09:02;;;;;;;5.40;1.35;;;;;;;;;;5096975;28;20077;-81
2022/07/16 14:11:28;;;;;;;4.78;0.77;;;;;;;;;;5079430;28;20036;-79
2022/07/16 14:13:54;;;;;;;3.17;0.90;;;;;;;;;;5096652;28;20035;-79
2022/07/16 14:16:20;;;;;;;3.40;0.93;;;;;;;;;;5096679;28;20051;-79
2022/07/16 14:18:46;;;;;;;4.57;0.98;;;;;;;;;;5097125;28;20040;-78
2022/07/16 14:21:13;;;;;;;7.03;1.33;;;;;;;;;;5096400;28;20039;-80
2022/07/16 14:23:40;;;;;;;4.70;0.80;;;;;;;;;;5097093;28;20499;-80
2022/07/16 14:26:06;;;;;;;2.60;0.70;;;;;;;;;;5096778;28;20126;-79
2022/07/16 14:28:32;;;;;;;3.88;1.02;;;;;;;;;;5096691;28;20047;-80
2022/07/16 14:30:59;;;;;;;3.38;0.70;;;;;;;;;;5096585;28;20484;-79
2022/07/16 14:33:25;;;;;;;3.05;0.75;;;;;;;;;;5096081;28;20047;-80
2022/07/16 14:35:51;;;;;;;2.70;0.80;;;;;;;;;;5096359;28;20097;-80
2022/07/16 14:38:17;;;;;;;3.45;0.90;;;;;;;;;;5095726;28;20078;-79
2022/07/16 14:40:43;;;;;;;3.00;0.70;;;;;;;;;;5096418;28;20043;-79
2022/07/16 14:43:09;;;;;;;2.53;0.73;;;;;;;;;;5096222;28;20040;-80
2022/07/16 14:45:35;;;;;;;6.18;1.23;;;;;;;;;;5095847;28;20048;-81
2022/07/16 14:48:01;;;;;;;3.40;1.10;;;;;;;;;;5114394;28;20084;-79
2022/07/16 14:50:27;;;;;;;3.17;0.90;;;;;;;;;;5096382;28;20043;-80
2022/07/16 14:52:53;;;;;;;3.75;0.90;;;;;;;;;;5096234;28;20036;-80
2022/07/16 14:55:19;;;;;;;5.88;0.95;;;;;;;;;;5094906;28;20488;-81